Sonic Adventure (DX): Overall Rankings

Records: Times | Rings | Scores | Races | Bosses | Freestyle
Leaders: Times | Rings | Scores | Races | Bosses | Freestyle | Overall
Rank Player Percent Points Date
1 Sonicspeedruner 98.0% 334 10-21-17
2 Gamepro011 98.0% 342 10-21-17
3 DarkPolarNight 96.8% 552 10-21-17
4 Jawzun 93.2% 1164 10-21-17
5 Dashjump 91.7% 1430 10-21-17
6 DarkspinesSonic 89.9% 1748 10-21-17
7 Avento128bits 89.7% 1779 10-21-17
8 ike6252 89.5% 1811 10-21-17
9 F-Man 87.7% 2129 10-21-17
10 Coolfansonic 87.3% 2201 10-21-17
11 HyperSonic7701 84.4% 2693 10-21-17
12 TheRealShadnic 84.1% 2754 10-21-17
13 yoshifan 82.8% 2975 10-21-17
14 frankoredstrato 82.3% 3055 10-21-17
15 francisco 81.4% 3226 10-21-17
16 Marth 81.2% 3259 10-21-17
17 InferSaime 80.0% 3453 10-21-17
18 PfoSonic 79.5% 3539 10-21-17
19 Paragod 79.1% 3613 10-21-17
20 THC98 78.2% 3768 10-21-17
21 Stefan 75.9% 4167 10-21-17
22 RPGnutter 73.8% 4532 10-21-17
23 bertin 73.6% 4567 10-21-17
24 sonicam 71.6% 4915 10-21-17
25 xXMegaManXx 70.2% 5161 10-21-17
26 drminus 70.2% 5167 10-21-17
27 Combo 65.8% 5924 10-21-17
28 chainchumper 65.8% 5931 10-21-17
29 chaos shadow 65.2% 6036 10-21-17
30 SkyLights 64.6% 6126 10-21-17
31 Diamond 62.4% 6509 10-21-17
32 Auriman1 60.6% 6830 10-21-17
33 OmegaDJ 60.5% 6845 10-21-17
34 GerbilSoft 60.5% 6848 10-21-17
35 magnum12 59.6% 6991 10-21-17
36 Thorn 57.5% 7365 10-21-17
37 P1 Pause 57.4% 7385 10-21-17
38 mike89 56.3% 7576 10-21-17
39 Groudon199 54.3% 7922 10-21-17
40 Dave Cramer 54.2% 7934 10-21-17
41 Shadow Jacky 53.1% 8120 10-21-17
42 Parax 53.1% 8121 10-21-17
43 Psymar 48.0% 9012 10-21-17
44 Arch 47.3% 9134 10-21-17
45 Chao_Fan 46.4% 9296 10-21-17
46 Quartz 45.3% 9476 10-21-17
47 mauserman 45.2% 9488 10-21-17
48 Dekuboy 44.8% 9570 10-21-17
49 teamblackarms 44.5% 9619 10-21-17
50 Psyknux 43.4% 9813 10-21-17
51 James_Bertolli 43.3% 9822 10-21-17
52 NintenDan 43.0% 9880 10-21-17
53 Webber3000 42.5% 9957 10-21-17
54 Turbos 42.4% 9984 10-21-17
55 Cream147 42.0% 10060 10-21-17
56 Ring Rush 41.9% 10063 10-21-17
57 videogamemaster777 41.8% 10094 10-21-17
58 Siavash Tazari 41.6% 10117 10-21-17
59 Fr3nZy 41.4% 10150 10-21-17
60 buddychaos0415 41.0% 10219 10-21-17
61 SadisticMystic 40.4% 10328 10-21-17
62 eggFL 39.7% 10444 10-21-17
63 ethmar 39.7% 10449 10-21-17
64 SB737 38.1% 10730 10-21-17
65 supersonic465 37.4% 10857 10-21-17
66 supersonicfan 37.1% 10904 10-21-17
67 FuzZerd 35.8% 11128 10-21-17
68 Aitamen 35.3% 11218 10-21-17
69 BigAL49 34.9% 11279 10-21-17
69 elecmouse101 34.9% 11279 10-21-17
71 danieldude 34.7% 11310 10-21-17
72 metanightmare22 33.8% 11479 10-21-17
73 Austinf 33.6% 11515 10-21-17
74 Cyan Ryan 33.5% 11519 10-21-17
75 dabestgamer 33.3% 11565 10-21-17
76 MiStEr_ShAoLiN 33.2% 11575 10-21-17
77 Andrea Ritsu 32.4% 11715 10-21-17
78 itsPersonnal 31.8% 11824 10-21-17
79 Cybrax 31.1% 11934 10-21-17
80 SilvertheAlmighty 31.1% 11947 10-21-17
81 Nim 30.7% 12013 10-21-17
82 JamminX42 30.5% 12043 10-21-17
83 VMU Player Banned 29.0% 12299 10-21-17
84 Staf 28.8% 12334 10-21-17
85 Omega Rafael Santos 28.5% 12391 10-21-17
86 The T 28.3% 12422 10-21-17
87 EngiNerd 28.1% 12458 10-21-17
88 lordmetalsonic 27.7% 12539 10-21-17
89 welldooder64 27.1% 12643 10-21-17
90 Hipertails12 26.9% 12667 10-21-17
91 GreatStar 26.8% 12687 10-21-17
92 The Great Lord Mick 26.7% 12699 10-21-17
93 Sondow 26.6% 12720 10-21-17
94 LinksDarkArrows 26.5% 12748 10-21-17
95 Mastakirby 26.4% 12755 10-21-17
96 Skylace 25.4% 12936 10-21-17
97 a_moustache 24.2% 13144 10-21-17
98 Rolken 24.0% 13180 10-21-17
99 Kogen Player Banned 22.3% 13473 10-21-17
100 Spinballwizard 22.2% 13482 10-21-17
101 Xia 22.2% 13491 10-21-17
102 Twilisailor 21.8% 13554 10-21-17
103 f0rever_zer0 21.7% 13574 10-21-17
104 Cutiefox 21.5% 13612 10-21-17
105 Don 21.3% 13636 10-21-17
106 Game_Complete 21.3% 13648 10-21-17
107 Miles9999 21.2% 13660 10-21-17
108 andres430 20.9% 13713 10-21-17
109 Cruizer 20.6% 13767 10-21-17
110 iSonicKid2K 20.6% 13768 10-21-17
111 SADXTryHard 20.1% 13842 10-21-17
112 GarnetPrincess 19.8% 13899 10-21-17
113 AxlThunder 19.0% 14043 10-21-17
114 knuckles_sonic8 18.7% 14099 10-21-17
115 The Knuckles Chao 18.4% 14144 10-21-17
116 KinkyCadence 18.2% 14175 10-21-17
117 Team_Yoshi 17.9% 14227 10-21-17
118 Termon 17.8% 14241 10-21-17
119 LittleBigness 17.8% 14250 10-21-17
120 FoxBoy 17.6% 14279 10-21-17
121 SonicWinDX 17.6% 14286 10-21-17
122 Drakodan 16.8% 14417 10-21-17
123 N 16.4% 14492 10-21-17
124 Sonic Singularity 16.0% 14562 10-21-17
125 Pokemonmaster888 15.7% 14613 10-21-17
126 SilverSonic 14.6% 14800 10-21-17
127 MPit08 14.6% 14806 10-21-17
128 Niczur 14.5% 14819 10-21-17
129 WeegeeZV 14.2% 14865 10-21-17
130 koinu93 14.2% 14877 10-21-17
131 Mo Player Banned 14.1% 14890 10-21-17
132 HyperSonic64 13.7% 14960 10-21-17
133 booo95 13.6% 14979 10-21-17
133 Cod4Scopes 13.6% 14979 10-21-17
135 Chawkk 13.4% 15016 10-21-17
135 Jerzia 13.4% 15016 10-21-17
137 paulie9990 13.4% 15017 10-21-17
138 SuperSonic101 13.1% 15058 10-21-17
139 Maxinfamily 13.0% 15075 10-21-17
140 Hunters13 13.0% 15079 10-21-17
141 LilZero 12.7% 15133 10-21-17
142 Kanimayo_Jp 12.6% 15150 10-21-17
143 BrokenArthritis 12.5% 15175 10-21-17
144 PsyBorg 12.4% 15186 10-21-17
145 Flying Fox 12.3% 15196 10-21-17
146 sonicspeed 12.0% 15253 10-21-17
147 Therio 12.0% 15258 10-21-17
148 douglas 11.9% 15280 10-21-17
149 Matt_TY 11.5% 15345 10-21-17
150 thewaytodawnnn 11.4% 15351 10-21-17
151 Cooljay 10.9% 15440 10-21-17
152 SuperBlitzCraig 10.7% 15482 10-21-17
153 SeaWolf 10.7% 15483 10-21-17
154 joecoolgames 10.7% 15487 10-21-17
155 videogamer1014 10.6% 15506 10-21-17
156 AC-Tygo 10.3% 15551 10-21-17
157 welshmoose05 10.2% 15564 10-21-17
158 OddCook 10.0% 15597 10-21-17
159 crazy1993 10.0% 15609 10-21-17
160 TFEC Headshot 9.9% 15626 10-21-17
161 Mcshuggets 9.7% 15657 10-21-17
162 niscool 9.5% 15691 10-21-17
163 Mariobutch 9.3% 15726 10-21-17
164 Irregular Zero 9.3% 15730 10-21-17
165 nuckrieg 9.2% 15735 10-21-17
166 SonicAD 9.2% 15738 10-21-17
167 Shadowthegreat 9.1% 15761 10-21-17
168 SirTobbii 9.1% 15765 10-21-17
168 superjupi 9.1% 15765 10-21-17
170 sonamyfan666 8.8% 15811 10-21-17
171 iarebored 8.7% 15830 10-21-17
172 Powerjohn25 8.7% 15835 10-21-17
173 SonicKnuckles 8.6% 15843 10-21-17
174 SaviourDC 8.6% 15844 10-21-17
175 adf 8.3% 15901 10-21-17
176 Werey 8.3% 15904 10-21-17
177 Megaman EXE565 8.0% 15943 10-21-17
178 Platformer 7.6% 16011 10-21-17
179 ArcticDragon 7.6% 16023 10-21-17
180 timpkmn89 7.5% 16032 10-21-17
181 wheatrich 7.4% 16046 10-21-17
182 Swift Hobo 7.3% 16065 10-21-17
183 FocusSight64 7.3% 16066 10-21-17
184 ModifiedMonkee 7.2% 16085 10-21-17
185 Rickyman48 7.1% 16103 10-21-17
186 KitsuneYamaro 7.1% 16108 10-21-17
187 Triseena 6.9% 16136 10-21-17
188 dShadow 6.6% 16188 10-21-17
189 Destroyer121121 6.5% 16203 10-21-17
190 CyberShadow 6.5% 16206 10-21-17
191 slade23 6.5% 16209 10-21-17
192 Starlight Sable 6.5% 16212 10-21-17
193 IsisDazs 6.3% 16240 10-21-17
194 BlankTH 6.2% 16269 10-21-17
195 Monkeh 6.1% 16276 10-21-17
196 Redd 5.9% 16307 10-21-17
197 SonicU260 5.9% 16309 10-21-17
198 Badlex727 5.9% 16310 10-21-17
199 Richied 5.8% 16325 10-21-17
200 DaDude 5.7% 16343 10-21-17
201 Swinkly 5.6% 16357 10-21-17
202 Vicklaw 5.6% 16366 10-21-17
203 sonicd5 5.6% 16370 10-21-17
203 Zip 5.6% 16370 10-21-17
205 ALundstrom10 5.2% 16427 10-21-17
206 tal39h 5.2% 16439 10-21-17
207 VeritasDL 5.2% 16440 10-21-17
208 Kirbymon30 5.1% 16459 10-21-17
209 soniccoloursunleashed 5.0% 16470 10-21-17
210 Drflash55 5.0% 16474 10-21-17
211 Bass 4.9% 16488 10-21-17
212 neaolas 4.8% 16509 10-21-17
213 superiorsonic 4.7% 16515 10-21-17
214 zapp 4.7% 16526 10-21-17
215 Yish 4.7% 16527 10-21-17
216 UninspiredUsername 4.6% 16540 10-21-17
217 Sonicsuperstar1 4.5% 16550 10-21-17
218 gamefreak1292 4.5% 16557 10-21-17
219 Sora_yx 4.3% 16592 10-21-17
220 Chaos_Overlord 4.2% 16609 10-21-17
221 TakaRikka 4.0% 16634 10-21-17
222 Valfore 4.0% 16639 10-21-17
223 Dage4Aquatic 3.9% 16665 10-21-17
224 ShinigamiMachine 3.8% 16677 10-21-17
225 Regano1000 3.8% 16680 10-21-17
226 MK 3.7% 16696 10-21-17
227 Ace747 3.6% 16713 10-21-17
228 Jua Rever 3.5% 16736 10-21-17
229 HHNNBBHHN 3.1% 16790 10-21-17
229 Illidan 3.1% 16790 10-21-17
231 Sithwarrior26 3.1% 16796 10-21-17
231 Venick409 3.1% 16796 10-21-17
233 nman36 3.1% 16798 10-21-17
234 Brian_pso 3.1% 16800 10-21-17
235 SkyBon 3.0% 16816 10-21-17
236 Egor305 3.0% 16817 10-21-17
237 TheChaosEmeraIds 3.0% 16824 10-21-17
238 ingx24 2.9% 16828 10-21-17
239 dekki1234 2.9% 16836 10-21-17
239 Nickson98 2.9% 16836 10-21-17
241 Fozer 2.8% 16848 10-21-17
242 Colomb_30 2.8% 16851 10-21-17
243 FSSRandomvids 2.8% 16856 10-21-17
244 Aiko 2.7% 16867 10-21-17
245 sonic29887 2.7% 16872 10-21-17
246 TheUltraBlur 2.6% 16881 10-21-17
247 1stKirbyever 2.6% 16887 10-21-17
248 TimTH 2.5% 16900 10-21-17
249 Th4tN1nj4Turtl3 2.4% 16920 10-21-17
250 Cort_pso 2.3% 16933 10-21-17
251 ieatatsonic 2.3% 16935 10-21-17
252 Mariosonic15 2.3% 16942 10-21-17
253 Doom-9 2.2% 16948 10-21-17
254 Artie 2.2% 16956 10-21-17
255 MStitomix 2.1% 16965 10-21-17
256 HermitHelmet 2.1% 16967 10-21-17
257 Got4n 2.0% 16984 10-21-17
258 SuperSonic71087 2.0% 16988 10-21-17
259 Jose_15 2.0% 16996 10-21-17
260 Questionguy555 1.9% 17004 10-21-17
261 djmat 1.9% 17013 10-21-17
262 SuperSonicfan9595 1.8% 17017 10-21-17
263 sonicandamy Player Banned 1.7% 17035 10-21-17
264 Heroes_Hater 1.7% 17038 10-21-17
265 LancexExWx 1.7% 17046 10-21-17
265 Paixii 1.7% 17046 10-21-17
267 son1cgu1tar 1.7% 17050 10-21-17
268 BallzeH 1.6% 17061 10-21-17
269 Mankster101 1.6% 17062 10-21-17
270 BecauseWarAnvil 1.5% 17070 10-21-17
271 Jamixesa 1.5% 17073 10-21-17
272 SpiritDragon1995 1.5% 17081 10-21-17
273 Crydio 1.4% 17087 10-21-17
273 Shanekilz 1.4% 17087 10-21-17
275 MarewBFN 1.4% 17100 10-21-17
276 stanski 1.3% 17106 10-21-17
277 Sonique Hedgehog 1.3% 17108 10-21-17
278 p0ker 1.2% 17120 10-21-17
279 Blue Infamy 1.2% 17122 10-21-17
280 ErrortheCucco 1.2% 17133 10-21-17
281 Rikum22 1.2% 17136 10-21-17
282 Arthas 1.1% 17138 10-21-17
283 sonic1001 1.1% 17144 10-21-17
284 AJSIV 1.1% 17150 10-21-17
284 WingedInsignia 1.1% 17150 10-21-17
286 syco1098 1.1% 17151 10-21-17
287 Sonic the Hedgehod16 1.1% 17154 10-21-17
288 ASINISTERTACO 1.0% 17161 10-21-17
289 Calfd 1.0% 17165 10-21-17
290 sonicfan9 1.0% 17166 10-21-17
291 BlackArmsShadow 0.9% 17175 10-21-17
292 themachoman202 0.9% 17176 10-21-17
293 darkstarblaze 0.9% 17180 10-21-17
294 Greham Adelphis 0.9% 17184 10-21-17
295 Fivavoa 0.9% 17185 10-21-17
295 shadowblast63 Player Banned 0.9% 17185 10-21-17
297 Mr. Jones 0.9% 17187 10-21-17
298 MastaToken 0.9% 17188 10-21-17
299 arcfx1985 0.8% 17190 10-21-17
299 Ben1502 0.8% 17190 10-21-17
301 ptorflaxendrosis 0.8% 17192 10-21-17
302 TommyeAsY 0.8% 17193 10-21-17
303 FlandreScarlet9999vr 0.8% 17198 10-21-17
303 Gvozdevik 0.8% 17198 10-21-17
305 Knuckles 0.8% 17199 10-21-17
306 Zeldocto 0.8% 17200 10-21-17
307 KaM Mark MaK 0.8% 17202 10-21-17
308 BeeAwwb 0.8% 17204 10-21-17
309 ShadouZaHejjihoggu 0.7% 17210 10-21-17
310 Sarger001 0.7% 17217 10-21-17
311 Sonic The Star 0.7% 17219 10-21-17
311 Sonic62 0.7% 17219 10-21-17
313 darkersupershadic 0.7% 17220 10-21-17
313 dragondragon18 0.7% 17220 10-21-17
315 Grady219 0.6% 17225 10-21-17
316 Shadygamerfreak 0.6% 17226 10-21-17
317 SonicK100 0.6% 17227 10-21-17
318 BioShadow 0.6% 17228 10-21-17
319 Sogeking 0.6% 17229 10-21-17
320 Jawaah 0.6% 17234 10-21-17
321 Antek 0.6% 17238 10-21-17
322 Klaus 0.6% 17240 10-21-17
322 SilverK 0.6% 17240 10-21-17
324 SpinDashMaster 0.5% 17246 10-21-17
325 Videogamer123 0.5% 17249 10-21-17
326 oTaiIilLsS 0.4% 17263 10-21-17
327 isaihtb11 0.4% 17264 10-21-17
328 OhNoes! 0.4% 17268 10-21-17
328 zaktu40 0.4% 17268 10-21-17
330 S-MS32X-S 0.4% 17270 10-21-17
331 gaara1234 0.4% 17271 10-21-17
331 Mad Andy 0.4% 17271 10-21-17
333 gamed00d 0.4% 17272 10-21-17
334 Mister_Slick 0.3% 17283 10-21-17
335 Sonic06Fan 0.3% 17286 10-21-17
336 Rush Hero 0.3% 17287 10-21-17
337 SonicMega167 0.3% 17292 10-21-17
338 Iwannabelink 0.2% 17294 10-21-17
339 sonknuck23 0.2% 17297 10-21-17
340 gamer1245 0.2% 17306 10-21-17
341 DanielTheFalcon 0.2% 17307 10-21-17
342 Burningskull123 0.1% 17311 10-21-17
343 Sonicontherun 0.1% 17322 10-21-17
344 Lil_Dude 0.1% 17327 10-21-17
345 antiwwe 0.0% 17328 10-21-17
346 Tyrouble 0.0% 17330 10-21-17
347 Genuine Hedgehog 0.0% 17331 10-21-17
347 SonataSpinDash 0.0% 17331 10-21-17
349 Cbwade15 0.0% 17335 10-21-17
350 MegabombBlade 0.0% 17345 10-21-17
350 neji_hyuuga 0.0% 17345 10-21-17
350 Over 0.0% 17345 10-21-17
350 sdj6707 Player Banned 0.0% 17345 10-21-17
350 Tran Sonic Fan Player Banned 0.0% 17345 10-21-17

This page is using the New Data Table System. [FUTURE]

Game ID: 3 | Category ID: 10
Hits: 4,182 | Hits This Month: 22 | DB Calls: 23 | Mem Usage: 5.48 MB | Time: 0.14s | Printable

The Sonic Center v3.9
Copyright 2003-2011 by The Sonic Center Team.